createdAt,value
2023-09-02T00:00:19.691Z,53.52
2023-09-02T00:02:51.439Z,53.55
2023-09-02T00:05:23.170Z,53.57
2023-09-02T00:07:54.840Z,53.57
2023-09-02T00:10:26.520Z,53.59
2023-09-02T00:12:58.244Z,53.64
2023-09-02T00:15:30.303Z,53.68
2023-09-02T00:18:02.108Z,53.70
2023-09-02T00:20:33.881Z,53.70
2023-09-02T00:23:05.690Z,53.75
2023-09-02T00:25:37.434Z,53.77
2023-09-02T00:28:09.111Z,53.79
2023-09-02T00:30:40.775Z,53.80
2023-09-02T00:33:12.487Z,53.85
2023-09-02T00:35:44.202Z,53.87
2023-09-02T00:38:15.950Z,53.90
2023-09-02T00:40:55.574Z,53.92
2023-09-02T00:43:28.848Z,53.96
2023-09-02T00:46:00.925Z,53.96
2023-09-02T00:48:32.860Z,53.98
2023-09-02T00:51:04.545Z,54.04
2023-09-02T00:53:36.217Z,54.05
2023-09-02T00:56:08.485Z,54.08
2023-09-02T00:58:40.147Z,54.08
2023-09-02T01:01:12.249Z,54.11
2023-09-02T01:03:44.221Z,54.16
2023-09-02T01:06:16.424Z,54.18
2023-09-02T01:08:48.190Z,54.19
2023-09-02T01:11:19.862Z,54.20
2023-09-02T01:13:51.621Z,54.25
2023-09-02T01:16:24.222Z,54.26
2023-09-02T01:18:56.107Z,54.30
2023-09-02T01:21:45.945Z,54.35
2023-09-02T01:24:38.543Z,54.36
2023-09-02T01:27:28.299Z,54.43
2023-09-02T01:30:25.291Z,54.47
2023-09-02T01:32:58.231Z,54.50
2023-09-02T01:35:34.352Z,54.50
2023-09-02T01:38:08.058Z,54.53
2023-09-02T01:40:39.840Z,54.56
2023-09-02T01:43:11.768Z,54.55
2023-09-02T01:45:44.212Z,54.61
2023-09-02T01:48:16.001Z,54.63
2023-09-02T01:50:48.208Z,54.63
2023-09-02T01:53:20.259Z,54.68
2023-09-02T01:55:52.649Z,54.68
2023-09-02T01:58:24.673Z,54.71
2023-09-02T02:00:58.184Z,54.74
2023-09-02T02:03:35.703Z,54.78
2023-09-02T02:06:10.486Z,54.78
2023-09-02T02:08:51.430Z,54.79
2023-09-02T02:11:23.956Z,54.83
2023-09-02T02:14:02.588Z,54.82
2023-09-02T02:16:34.560Z,54.87
2023-09-02T02:19:06.782Z,54.88
2023-09-02T02:21:38.472Z,54.89
2023-09-02T02:24:10.171Z,54.89
2023-09-02T02:26:41.868Z,54.94
2023-09-02T02:29:13.584Z,54.95
2023-09-02T02:31:45.645Z,54.98
2023-09-02T02:34:17.358Z,55.00
2023-09-02T02:36:49.387Z,55.04
2023-09-02T02:39:21.396Z,55.07
2023-09-02T02:41:53.094Z,55.10
2023-09-02T02:44:24.782Z,55.11
2023-09-02T02:46:56.516Z,55.16
2023-09-02T02:49:28.172Z,55.22
2023-09-02T02:52:02.665Z,55.25
2023-09-02T02:54:38.422Z,55.34
2023-09-02T02:57:10.523Z,55.39
2023-09-02T02:59:42.294Z,55.38
2023-09-02T03:02:14.034Z,55.36
2023-09-02T03:04:49.580Z,55.35
2023-09-02T03:07:21.342Z,55.35
2023-09-02T03:09:56.595Z,55.34
2023-09-02T03:12:29.025Z,55.36
2023-09-02T03:15:00.785Z,55.38
2023-09-02T03:17:33.641Z,55.38
2023-09-02T03:20:07.346Z,55.38
2023-09-02T03:22:45.407Z,55.39
2023-09-02T03:25:17.270Z,55.41
2023-09-02T03:27:48.997Z,55.43
2023-09-02T03:30:22.797Z,55.46
2023-09-02T03:32:55.130Z,55.46
2023-09-02T03:35:26.872Z,55.45
2023-09-02T03:37:58.657Z,55.48
2023-09-02T03:40:30.597Z,55.47
2023-09-02T03:43:02.371Z,55.47
2023-09-02T03:45:37.167Z,55.48
2023-09-02T03:48:08.957Z,55.48
2023-09-02T03:51:00.359Z,55.48
2023-09-02T03:53:33.199Z,55.51
2023-09-02T03:56:05.363Z,55.48
2023-09-02T03:58:38.201Z,55.49
2023-09-02T04:01:09.971Z,55.48
2023-09-02T04:03:41.956Z,55.49
2023-09-02T04:06:14.786Z,55.51
2023-09-02T04:08:46.469Z,55.49
2023-09-02T04:11:18.273Z,55.48
2023-09-02T04:13:49.978Z,55.49
2023-09-02T04:16:21.974Z,55.49
2023-09-02T04:18:53.759Z,55.48
2023-09-02T04:21:25.613Z,55.49
2023-09-02T04:23:58.820Z,55.49
2023-09-02T04:26:31.104Z,55.49
2023-09-02T04:29:02.881Z,55.48
2023-09-02T04:31:34.688Z,55.48
2023-09-02T04:34:07.085Z,55.47
2023-09-02T04:36:39.491Z,55.48
2023-09-02T04:39:11.336Z,55.46
2023-09-02T04:41:43.032Z,55.46
2023-09-02T04:44:18.782Z,55.46
2023-09-02T04:46:50.528Z,55.42
2023-09-02T04:49:24.368Z,55.43
2023-09-02T04:51:56.080Z,55.43
2023-09-02T04:54:27.996Z,55.42
2023-09-02T04:56:59.744Z,55.43
2023-09-02T04:59:32.187Z,55.44
2023-09-02T05:02:04.104Z,55.44
2023-09-02T05:04:36.592Z,55.43
2023-09-02T05:07:08.793Z,55.46
2023-09-02T05:09:42.052Z,55.46
2023-09-02T05:12:13.831Z,55.46
2023-09-02T05:14:45.556Z,55.46
2023-09-02T05:17:17.883Z,55.46
2023-09-02T05:19:49.616Z,55.47
2023-09-02T05:22:21.324Z,55.48
2023-09-02T05:24:53.881Z,55.49
2023-09-02T05:27:25.728Z,55.50
2023-09-02T05:29:57.546Z,55.48
2023-09-02T05:32:29.265Z,55.47
2023-09-02T05:35:00.947Z,55.48
2023-09-02T05:37:32.647Z,55.48
2023-09-02T05:40:04.880Z,55.48
2023-09-02T05:42:36.583Z,55.49
2023-09-02T05:45:08.652Z,55.51
2023-09-02T05:47:40.313Z,55.50
2023-09-02T05:50:12.249Z,55.55
2023-09-02T05:52:43.943Z,55.57
2023-09-02T05:55:15.740Z,55.57
2023-09-02T05:57:47.386Z,55.58
2023-09-02T06:00:19.163Z,55.59
2023-09-02T06:02:50.895Z,55.63
2023-09-02T06:05:22.701Z,55.64
2023-09-02T06:07:56.462Z,55.67
2023-09-02T06:10:28.194Z,55.69
2023-09-02T06:12:59.962Z,55.73
2023-09-02T06:15:31.831Z,55.76
2023-09-02T06:18:03.852Z,55.77
2023-09-02T06:20:35.545Z,55.78
2023-09-02T06:23:07.214Z,55.78
2023-09-02T06:25:38.881Z,55.81
2023-09-02T06:28:10.581Z,55.86
2023-09-02T06:30:42.241Z,55.89
2023-09-02T06:33:13.907Z,55.94
2023-09-02T06:35:45.606Z,55.97
2023-09-02T06:38:18.148Z,56.01
2023-09-02T06:40:49.875Z,56.08
2023-09-02T06:43:21.509Z,56.13
2023-09-02T06:45:53.176Z,56.16
2023-09-02T06:48:26.767Z,56.18
2023-09-02T06:50:59.702Z,56.22
2023-09-02T06:53:31.367Z,56.23
2023-09-02T06:56:06.698Z,56.26
2023-09-02T06:58:39.966Z,56.24
2023-09-02T07:01:19.527Z,56.26
2023-09-02T07:03:52.066Z,56.27
2023-09-02T07:06:24.719Z,56.28
2023-09-02T07:08:56.499Z,56.27
2023-09-02T07:11:28.225Z,56.30
2023-09-02T07:14:00.091Z,56.32
2023-09-02T07:16:31.806Z,56.34
2023-09-02T07:19:04.686Z,56.37
2023-09-02T07:21:36.349Z,56.34
2023-09-02T07:24:08.269Z,56.21
2023-09-02T07:26:40.034Z,56.00
2023-09-02T07:29:14.708Z,55.80
2023-09-02T07:31:48.403Z,55.65
2023-09-02T07:34:20.078Z,55.47
2023-09-02T07:36:51.833Z,55.37
2023-09-02T07:39:23.543Z,55.14
2023-09-02T07:41:55.198Z,54.92
2023-09-02T07:44:26.893Z,54.78
2023-09-02T07:46:59.059Z,54.71
2023-09-02T07:49:30.736Z,54.58
2023-09-02T07:52:02.427Z,54.55
2023-09-02T07:54:34.109Z,54.46
2023-09-02T07:57:07.647Z,54.27
2023-09-02T07:59:39.474Z,54.18
2023-09-02T08:02:11.219Z,54.14
2023-09-02T08:04:42.937Z,54.17
2023-09-02T08:07:14.686Z,53.95
2023-09-02T08:09:49.444Z,53.93
2023-09-02T08:12:21.148Z,53.89
2023-09-02T08:14:52.840Z,53.79
2023-09-02T08:17:24.533Z,53.68
2023-09-02T08:19:56.241Z,53.50
2023-09-02T08:22:27.922Z,53.36
2023-09-02T08:24:59.621Z,53.36
2023-09-02T08:27:31.340Z,53.40
2023-09-02T08:30:04.444Z,53.40
2023-09-02T08:32:36.230Z,53.27
2023-09-02T08:35:09.264Z,53.20
2023-09-02T08:37:41.016Z,52.79
2023-09-02T08:40:12.829Z,52.70
2023-09-02T08:42:44.622Z,52.40
2023-09-02T08:45:17.453Z,52.32
2023-09-02T08:47:56.264Z,52.06
2023-09-02T08:50:29.542Z,51.65
2023-09-02T08:53:01.736Z,51.54
2023-09-02T08:55:33.793Z,51.13
2023-09-02T08:58:05.666Z,51.15
2023-09-02T09:00:37.581Z,51.05
2023-09-02T09:03:13.087Z,50.66
2023-09-02T09:05:45.145Z,50.62
2023-09-02T09:08:17.290Z,50.56
2023-09-02T09:10:49.491Z,50.56
2023-09-02T09:13:21.531Z,50.40
2023-09-02T09:15:56.051Z,50.29
2023-09-02T09:18:27.924Z,50.14
2023-09-02T09:20:59.584Z,49.92
2023-09-02T09:23:31.282Z,49.74
2023-09-02T09:26:06.231Z,49.59
2023-09-02T09:28:52.386Z,49.40
2023-09-02T09:31:25.276Z,49.24
2023-09-02T09:34:01.829Z,49.17
2023-09-02T09:36:34.548Z,49.13
2023-09-02T09:39:06.957Z,48.99
2023-09-02T09:41:47.368Z,48.91
2023-09-02T09:44:19.055Z,48.55
2023-09-02T09:46:54.226Z,48.38
2023-09-02T09:49:25.976Z,47.98
2023-09-02T09:52:00.344Z,48.08
2023-09-02T09:54:38.649Z,48.19
2023-09-02T09:57:11.381Z,48.26
2023-09-02T09:59:55.285Z,48.26
2023-09-02T10:02:27.279Z,48.05
2023-09-02T10:05:01.034Z,47.90
2023-09-02T10:07:34.860Z,47.89
2023-09-02T10:10:07.061Z,47.99
2023-09-02T10:12:39.715Z,48.03
2023-09-02T10:15:11.539Z,47.80
2023-09-02T10:17:46.285Z,47.82
2023-09-02T10:20:18.186Z,47.67
2023-09-02T10:22:51.208Z,47.46
2023-09-02T10:25:25.838Z,47.43
2023-09-02T10:28:28.581Z,47.50
2023-09-02T10:31:01.066Z,47.66
2023-09-02T10:33:33.364Z,47.74
2023-09-02T10:36:07.785Z,47.63
2023-09-02T10:38:43.810Z,47.34
2023-09-02T10:41:18.750Z,46.87
2023-09-02T10:43:50.630Z,46.48
2023-09-02T10:46:22.661Z,46.13
2023-09-02T10:48:54.612Z,45.74
2023-09-02T10:51:26.321Z,45.58
2023-09-02T10:53:58.910Z,45.32
2023-09-02T10:56:34.369Z,45.18
2023-09-02T10:59:07.376Z,45.43
2023-09-02T11:01:49.535Z,45.39
2023-09-02T11:04:45.323Z,45.52
2023-09-02T11:07:24.011Z,45.52
2023-09-02T11:09:57.300Z,45.24
2023-09-02T11:12:29.340Z,44.96
2023-09-02T11:15:10.222Z,44.82
2023-09-02T11:17:42.730Z,44.91
2023-09-02T11:20:15.134Z,45.04
2023-09-02T11:22:54.921Z,45.24
2023-09-02T11:25:31.460Z,45.29
2023-09-02T11:28:05.018Z,45.36
2023-09-02T11:30:40.554Z,45.38
2023-09-02T11:33:19.040Z,45.24
2023-09-02T11:35:51.274Z,44.93
2023-09-02T11:38:22.986Z,44.66
2023-09-02T11:40:54.660Z,44.35
2023-09-02T11:43:29.716Z,44.21
2023-09-02T11:46:02.360Z,43.91
2023-09-02T11:48:34.211Z,43.72
2023-09-02T11:51:05.897Z,43.54
2023-09-02T11:53:37.676Z,43.40
2023-09-02T11:56:12.496Z,43.25
2023-09-02T11:58:44.202Z,43.04
2023-09-02T12:01:15.922Z,42.92
2023-09-02T12:03:50.375Z,42.71
2023-09-02T12:06:22.784Z,42.51
2023-09-02T12:08:54.353Z,42.32
2023-09-02T12:11:26.535Z,42.43
2023-09-02T12:13:58.729Z,42.19
2023-09-02T12:16:30.581Z,41.99
2023-09-02T12:19:02.328Z,42.06
2023-09-02T12:21:37.571Z,42.00
2023-09-02T12:24:09.294Z,41.94
2023-09-02T12:27:07.281Z,41.61
2023-09-02T12:29:39.288Z,41.39
2023-09-02T12:32:10.984Z,41.37
2023-09-02T12:34:42.770Z,41.32
2023-09-02T12:37:19.761Z,41.21
2023-09-02T12:39:51.747Z,41.03
2023-09-02T12:42:26.438Z,40.99
2023-09-02T12:45:03.731Z,40.66
2023-09-02T12:47:39.756Z,40.50
2023-09-02T12:50:11.469Z,40.39
2023-09-02T12:52:43.208Z,40.50
2023-09-02T12:55:14.870Z,40.70
2023-09-02T12:57:46.564Z,40.56
2023-09-02T13:00:18.413Z,40.63
2023-09-02T13:02:50.613Z,40.71
2023-09-02T13:05:22.452Z,40.72
2023-09-02T13:07:55.298Z,40.78
2023-09-02T13:10:27.024Z,40.80
2023-09-02T13:12:59.104Z,40.86
2023-09-02T13:15:31.158Z,40.90
2023-09-02T13:18:03.000Z,40.89
2023-09-02T13:20:37.310Z,40.91
2023-09-02T13:23:10.865Z,40.79
2023-09-02T13:25:42.604Z,40.79
2023-09-02T13:28:14.257Z,40.77
2023-09-02T13:30:47.006Z,40.79
2023-09-02T13:33:21.062Z,40.81
2023-09-02T13:35:53.061Z,40.76
2023-09-02T13:38:25.526Z,40.80
2023-09-02T13:40:57.258Z,40.93
2023-09-02T13:43:29.084Z,41.17
2023-09-02T13:46:01.149Z,41.33
2023-09-02T13:48:32.947Z,41.48
2023-09-02T13:51:05.573Z,41.62
2023-09-02T13:53:38.091Z,41.72
2023-09-02T13:56:11.178Z,41.75
2023-09-02T13:58:43.283Z,41.99
2023-09-02T14:01:14.940Z,41.97
2023-09-02T14:03:48.843Z,41.95
2023-09-02T14:06:20.635Z,41.99
2023-09-02T14:08:52.321Z,41.95
2023-09-02T14:11:24.019Z,41.87
2023-09-02T14:13:55.791Z,41.81
2023-09-02T14:16:29.185Z,41.75
2023-09-02T14:19:00.981Z,41.75
2023-09-02T14:21:32.637Z,41.76
2023-09-02T14:24:04.638Z,41.75
2023-09-02T14:26:36.327Z,41.75
2023-09-02T14:29:07.996Z,41.75
2023-09-02T14:31:39.678Z,41.75
2023-09-02T14:34:11.340Z,41.47
2023-09-02T14:36:43.267Z,41.48
2023-09-02T14:39:16.155Z,41.58
2023-09-02T14:41:50.992Z,41.65
2023-09-02T14:44:24.083Z,41.59
2023-09-02T14:46:56.692Z,41.49
2023-09-02T14:49:32.270Z,41.64
2023-09-02T14:52:04.312Z,41.71
2023-09-02T14:54:44.599Z,41.68
2023-09-02T14:57:17.745Z,41.82
2023-09-02T14:59:52.539Z,41.88
2023-09-02T15:02:41.655Z,42.06
2023-09-02T15:05:15.336Z,42.13
2023-09-02T15:07:47.365Z,42.22
2023-09-02T15:10:23.483Z,42.28
2023-09-02T15:12:55.466Z,42.42
2023-09-02T15:15:33.321Z,42.39
2023-09-02T15:18:13.586Z,42.35
2023-09-02T15:20:45.326Z,42.33
2023-09-02T15:23:17.222Z,42.32
2023-09-02T15:25:55.431Z,42.44
2023-09-02T15:28:27.083Z,42.59
2023-09-02T15:31:03.221Z,42.75
2023-09-02T15:33:35.273Z,43.01
2023-09-02T15:36:15.331Z,43.18
2023-09-02T15:38:47.610Z,43.33
2023-09-02T15:41:19.370Z,43.50
2023-09-02T15:43:54.132Z,43.56
2023-09-02T15:46:25.832Z,43.67
2023-09-02T15:49:01.183Z,43.85
2023-09-02T15:51:32.842Z,43.84
2023-09-02T15:54:04.814Z,43.93
2023-09-02T15:56:38.371Z,44.08
2023-09-02T15:59:10.147Z,44.23
2023-09-02T16:01:41.928Z,44.40
2023-09-02T16:04:13.671Z,44.52
2023-09-02T16:06:45.306Z,44.62
2023-09-02T16:09:16.973Z,44.76
2023-09-02T16:11:50.137Z,44.87
2023-09-02T16:14:21.863Z,45.00
2023-09-02T16:16:53.588Z,45.14
2023-09-02T16:19:25.260Z,45.25
2023-09-02T16:21:57.105Z,45.39
2023-09-02T16:24:30.184Z,45.45
2023-09-02T16:27:01.866Z,45.58
2023-09-02T16:29:34.270Z,45.70
2023-09-02T16:32:07.699Z,45.82
2023-09-02T16:34:46.250Z,45.93
2023-09-02T16:37:18.030Z,46.07
2023-09-02T16:39:53.014Z,46.18
2023-09-02T16:42:29.567Z,46.27
2023-09-02T16:45:07.591Z,46.35
2023-09-02T16:47:45.860Z,46.44
2023-09-02T16:50:19.806Z,46.56
2023-09-02T16:52:53.510Z,46.65
2023-09-02T16:55:29.316Z,46.77
2023-09-02T16:58:01.022Z,46.83
2023-09-02T17:00:34.508Z,46.90
2023-09-02T17:03:06.430Z,46.98
2023-09-02T17:05:42.385Z,47.08
2023-09-02T17:08:22.510Z,47.18
2023-09-02T17:10:57.140Z,47.27
2023-09-02T17:13:28.922Z,47.47
2023-09-02T17:16:00.622Z,47.58
2023-09-02T17:18:32.510Z,47.60
2023-09-02T17:21:04.472Z,47.73
2023-09-02T17:23:36.219Z,47.85
2023-09-02T17:26:08.014Z,47.95
2023-09-02T17:28:39.807Z,48.09
2023-09-02T17:31:11.641Z,48.24
2023-09-02T17:33:44.865Z,48.37
2023-09-02T17:36:17.116Z,48.51
2023-09-02T17:38:48.809Z,48.67
2023-09-02T17:41:20.658Z,48.79
2023-09-02T17:43:52.325Z,48.97
2023-09-02T17:46:24.057Z,49.13
2023-09-02T17:48:55.754Z,49.30
2023-09-02T17:51:27.508Z,49.44
2023-09-02T17:53:59.209Z,49.52
2023-09-02T17:56:30.918Z,49.56
2023-09-02T17:59:02.646Z,49.65
2023-09-02T18:01:34.406Z,49.71
2023-09-02T18:04:06.434Z,49.78
2023-09-02T18:06:39.565Z,49.88
2023-09-02T18:09:11.267Z,49.91
2023-09-02T18:11:42.994Z,50.00
2023-09-02T18:14:14.668Z,50.05
2023-09-02T18:16:46.325Z,50.14
2023-09-02T18:19:20.114Z,50.17
2023-09-02T18:21:51.792Z,50.21
2023-09-02T18:24:23.556Z,50.27
2023-09-02T18:26:55.481Z,50.33
2023-09-02T18:29:27.186Z,50.38
2023-09-02T18:31:59.412Z,50.45
2023-09-02T18:34:31.070Z,50.61
2023-09-02T18:37:02.819Z,50.82
2023-09-02T18:39:34.553Z,50.94
2023-09-02T18:42:06.395Z,51.03
2023-09-02T18:44:38.058Z,51.12
2023-09-02T18:47:09.842Z,51.14
2023-09-02T18:49:41.594Z,51.19
2023-09-02T18:52:13.610Z,51.20
2023-09-02T18:54:45.342Z,51.22
2023-09-02T18:57:16.991Z,51.22
2023-09-02T18:59:48.725Z,51.25
2023-09-02T19:02:20.423Z,51.32
2023-09-02T19:04:52.227Z,51.35
2023-09-02T19:07:24.044Z,51.44
2023-09-02T19:09:55.745Z,51.48
2023-09-02T19:12:27.396Z,51.50
2023-09-02T19:14:59.069Z,51.55
2023-09-02T19:17:32.605Z,51.56
2023-09-02T19:20:07.570Z,51.53
2023-09-02T19:22:44.187Z,51.66
2023-09-02T19:25:17.708Z,51.85
2023-09-02T19:27:49.395Z,51.95
2023-09-02T19:30:32.924Z,52.14
2023-09-02T19:33:04.977Z,52.15
2023-09-02T19:35:36.779Z,52.23
2023-09-02T19:38:08.636Z,52.29
2023-09-02T19:40:40.624Z,52.36
2023-09-02T19:43:12.351Z,52.36
2023-09-02T19:45:44.109Z,52.39
2023-09-02T19:48:15.998Z,52.49
2023-09-02T19:50:47.700Z,52.53
2023-09-02T19:53:19.359Z,52.51
2023-09-02T19:55:54.134Z,52.55
2023-09-02T19:58:26.588Z,52.55
2023-09-02T20:00:58.355Z,52.59
2023-09-02T20:03:30.038Z,52.57
2023-09-02T20:06:01.779Z,52.52
2023-09-02T20:08:33.466Z,52.52
2023-09-02T20:11:06.261Z,52.51
2023-09-02T20:13:38.001Z,52.49
2023-09-02T20:16:09.770Z,52.52
2023-09-02T20:18:43.139Z,52.54
2023-09-02T20:21:14.833Z,52.50
2023-09-02T20:23:46.505Z,52.53
2023-09-02T20:26:18.238Z,52.53
2023-09-02T20:28:50.015Z,52.53
2023-09-02T20:31:22.857Z,52.55
2023-09-02T20:33:54.600Z,52.57
2023-09-02T20:36:26.284Z,52.57
2023-09-02T20:38:57.927Z,52.60
2023-09-02T20:41:29.639Z,52.63
2023-09-02T20:44:01.374Z,52.63
2023-09-02T20:46:33.107Z,52.66
2023-09-02T20:49:05.079Z,52.66
2023-09-02T20:51:36.756Z,52.68
2023-09-02T20:54:09.101Z,52.69
2023-09-02T20:56:40.885Z,52.69
2023-09-02T20:59:12.662Z,52.70
2023-09-02T21:01:45.565Z,52.75
2023-09-02T21:04:18.244Z,52.77
2023-09-02T21:06:50.156Z,52.77
2023-09-02T21:09:21.880Z,52.78
2023-09-02T21:11:53.558Z,52.80
2023-09-02T21:14:25.800Z,52.83
2023-09-02T21:16:57.575Z,52.84
2023-09-02T21:19:29.307Z,52.85
2023-09-02T21:22:00.996Z,52.86
2023-09-02T21:24:32.735Z,52.89
2023-09-02T21:27:04.836Z,52.89
2023-09-02T21:29:36.695Z,52.89
2023-09-02T21:32:08.468Z,52.89
2023-09-02T21:34:40.188Z,52.91
2023-09-02T21:37:11.871Z,52.95
2023-09-02T21:39:43.574Z,52.96
2023-09-02T21:42:15.318Z,52.97
2023-09-02T21:44:51.604Z,52.99
2023-09-02T21:47:23.401Z,53.01
2023-09-02T21:49:56.389Z,52.99
2023-09-02T21:52:28.090Z,53.05
2023-09-02T21:54:59.740Z,53.06
2023-09-02T21:57:31.417Z,53.06
2023-09-02T22:00:07.165Z,53.07
2023-09-02T22:02:38.998Z,53.08
2023-09-02T22:05:10.794Z,53.12
2023-09-02T22:07:42.523Z,53.11
2023-09-02T22:10:14.395Z,53.15
2023-09-02T22:12:47.444Z,53.17
2023-09-02T22:15:19.115Z,53.16
2023-09-02T22:17:50.811Z,53.19
2023-09-02T22:20:22.613Z,53.19
2023-09-02T22:22:54.455Z,53.22
2023-09-02T22:25:26.133Z,53.24
2023-09-02T22:27:57.797Z,53.23
2023-09-02T22:30:29.578Z,53.26
2023-09-02T22:33:01.392Z,53.28
2023-09-02T22:35:33.748Z,53.28
2023-09-02T22:38:07.845Z,53.30
2023-09-02T22:40:40.919Z,53.30
2023-09-02T22:43:12.794Z,53.31
2023-09-02T22:45:44.641Z,53.35
2023-09-02T22:48:17.334Z,53.36
2023-09-02T22:50:49.001Z,53.39
2023-09-02T22:53:21.408Z,53.39
2023-09-02T22:55:53.220Z,53.38
2023-09-02T22:58:25.126Z,53.38
2023-09-02T23:00:56.910Z,53.38
2023-09-02T23:03:28.982Z,53.39
2023-09-02T23:06:05.642Z,53.41
2023-09-02T23:08:37.438Z,53.45
2023-09-02T23:11:09.155Z,53.48
2023-09-02T23:13:43.396Z,53.48
2023-09-02T23:16:15.306Z,53.47
2023-09-02T23:18:47.086Z,53.50
2023-09-02T23:21:18.818Z,53.54
2023-09-02T23:23:50.513Z,53.54
2023-09-02T23:26:22.475Z,53.55
2023-09-02T23:28:58.975Z,53.56
2023-09-02T23:31:30.762Z,53.57
2023-09-02T23:34:04.118Z,53.58
2023-09-02T23:36:36.224Z,53.58
2023-09-02T23:39:08.173Z,53.61
2023-09-02T23:41:39.890Z,53.59
2023-09-02T23:44:11.579Z,53.60
2023-09-02T23:46:44.190Z,53.66
2023-09-02T23:49:16.224Z,53.68
2023-09-02T23:51:48.052Z,53.68
2023-09-02T23:54:20.189Z,53.68
2023-09-02T23:56:52.128Z,53.71
2023-09-02T23:59:24.973Z,53.69
